sensor_id;sensor_type;location;lat;lon;timestamp;temperature;humidity
35635;DHT22;21757;43.610;1.440;2023-06-14T00:00:10;19.00;68.90
35635;DHT22;21757;43.610;1.440;2023-06-14T00:02:40;18.80;68.60
35635;DHT22;21757;43.610;1.440;2023-06-14T00:05:07;18.90;70.20
35635;DHT22;21757;43.610;1.440;2023-06-14T00:07:38;19.00;70.50
35635;DHT22;21757;43.610;1.440;2023-06-14T00:10:08;19.10;70.60
35635;DHT22;21757;43.610;1.440;2023-06-14T00:12:34;19.00;70.40
35635;DHT22;21757;43.610;1.440;2023-06-14T00:15:00;18.90;70.00
35635;DHT22;21757;43.610;1.440;2023-06-14T00:17:27;18.90;70.30
35635;DHT22;21757;43.610;1.440;2023-06-14T00:19:56;19.00;70.90
35635;DHT22;21757;43.610;1.440;2023-06-14T00:22:22;18.90;71.00
35635;DHT22;21757;43.610;1.440;2023-06-14T00:24:50;19.20;71.80
35635;DHT22;21757;43.610;1.440;2023-06-14T00:27:16;19.20;72.00
35635;DHT22;21757;43.610;1.440;2023-06-14T00:29:42;19.20;71.80
35635;DHT22;21757;43.610;1.440;2023-06-14T00:32:08;19.10;71.90
35635;DHT22;21757;43.610;1.440;2023-06-14T00:34:34;19.20;72.90
35635;DHT22;21757;43.610;1.440;2023-06-14T00:37:00;19.30;72.80
35635;DHT22;21757;43.610;1.440;2023-06-14T00:39:26;19.30;72.60
35635;DHT22;21757;43.610;1.440;2023-06-14T00:41:52;19.40;73.20
35635;DHT22;21757;43.610;1.440;2023-06-14T00:44:18;19.30;73.20
35635;DHT22;21757;43.610;1.440;2023-06-14T00:46:45;19.20;73.00
35635;DHT22;21757;43.610;1.440;2023-06-14T00:49:12;19.00;72.60
35635;DHT22;21757;43.610;1.440;2023-06-14T00:51:43;18.90;73.50
35635;DHT22;21757;43.610;1.440;2023-06-14T00:54:09;18.80;73.10
35635;DHT22;21757;43.610;1.440;2023-06-14T00:56:38;18.80;73.70
35635;DHT22;21757;43.610;1.440;2023-06-14T00:59:04;19.20;74.40
35635;DHT22;21757;43.610;1.440;2023-06-14T01:01:31;19.30;75.10
35635;DHT22;21757;43.610;1.440;2023-06-14T01:03:59;19.40;75.60
35635;DHT22;21757;43.610;1.440;2023-06-14T01:09:18;19.30;74.90
35635;DHT22;21757;43.610;1.440;2023-06-14T01:12:01;19.10;74.10
35635;DHT22;21757;43.610;1.440;2023-06-14T01:14:31;19.00;75.00
35635;DHT22;21757;43.610;1.440;2023-06-14T01:16:58;19.00;75.10
35635;DHT22;21757;43.610;1.440;2023-06-14T01:19:26;19.00;75.50
35635;DHT22;21757;43.610;1.440;2023-06-14T01:21:55;18.90;76.10
35635;DHT22;21757;43.610;1.440;2023-06-14T01:24:20;18.80;76.20
35635;DHT22;21757;43.610;1.440;2023-06-14T01:26:53;18.80;76.80
35635;DHT22;21757;43.610;1.440;2023-06-14T01:29:23;18.90;77.50
35635;DHT22;21757;43.610;1.440;2023-06-14T01:31:51;18.90;77.40
35635;DHT22;21757;43.610;1.440;2023-06-14T01:34:16;18.90;77.30
35635;DHT22;21757;43.610;1.440;2023-06-14T01:36:44;19.10;78.50
35635;DHT22;21757;43.610;1.440;2023-06-14T01:39:14;19.10;78.30
35635;DHT22;21757;43.610;1.440;2023-06-14T01:41:41;19.10;78.30
35635;DHT22;21757;43.610;1.440;2023-06-14T01:44:09;19.10;78.60
35635;DHT22;21757;43.610;1.440;2023-06-14T01:46:36;19.10;78.90
35635;DHT22;21757;43.610;1.440;2023-06-14T01:49:02;19.00;79.20
35635;DHT22;21757;43.610;1.440;2023-06-14T01:51:28;19.10;78.40
35635;DHT22;21757;43.610;1.440;2023-06-14T01:53:54;19.10;78.80
35635;DHT22;21757;43.610;1.440;2023-06-14T01:56:20;19.00;79.50
35635;DHT22;21757;43.610;1.440;2023-06-14T01:58:47;19.00;78.80
35635;DHT22;21757;43.610;1.440;2023-06-14T02:01:13;19.00;79.70
35635;DHT22;21757;43.610;1.440;2023-06-14T02:03:41;19.00;79.10
35635;DHT22;21757;43.610;1.440;2023-06-14T02:06:08;19.00;79.40
35635;DHT22;21757;43.610;1.440;2023-06-14T02:08:33;19.00;79.60
35635;DHT22;21757;43.610;1.440;2023-06-14T02:10:59;19.00;79.60
35635;DHT22;21757;43.610;1.440;2023-06-14T02:13:25;19.00;79.50
35635;DHT22;21757;43.610;1.440;2023-06-14T02:15:50;19.10;80.10
35635;DHT22;21757;43.610;1.440;2023-06-14T02:18:20;19.00;80.30
35635;DHT22;21757;43.610;1.440;2023-06-14T02:20:46;19.00;80.30
35635;DHT22;21757;43.610;1.440;2023-06-14T02:23:12;19.00;80.10
35635;DHT22;21757;43.610;1.440;2023-06-14T02:25:38;19.00;80.10
35635;DHT22;21757;43.610;1.440;2023-06-14T02:28:05;19.00;80.30
35635;DHT22;21757;43.610;1.440;2023-06-14T02:30:31;19.00;80.00
35635;DHT22;21757;43.610;1.440;2023-06-14T02:32:57;18.90;80.40
35635;DHT22;21757;43.610;1.440;2023-06-14T02:35:23;18.90;80.50
35635;DHT22;21757;43.610;1.440;2023-06-14T02:37:52;18.90;81.20
35635;DHT22;21757;43.610;1.440;2023-06-14T02:40:18;19.00;82.10
35635;DHT22;21757;43.610;1.440;2023-06-14T02:42:44;19.00;80.80
35635;DHT22;21757;43.610;1.440;2023-06-14T02:45:10;18.90;81.60
35635;DHT22;21757;43.610;1.440;2023-06-14T02:47:35;18.90;81.10
35635;DHT22;21757;43.610;1.440;2023-06-14T02:50:01;19.20;82.30
35635;DHT22;21757;43.610;1.440;2023-06-14T02:52:28;19.20;81.70
35635;DHT22;21757;43.610;1.440;2023-06-14T02:54:54;19.20;81.80
35635;DHT22;21757;43.610;1.440;2023-06-14T02:57:20;19.10;81.70
35635;DHT22;21757;43.610;1.440;2023-06-14T02:59:46;19.00;81.80
35635;DHT22;21757;43.610;1.440;2023-06-14T03:02:12;19.10;81.90
35635;DHT22;21757;43.610;1.440;2023-06-14T03:04:37;19.10;82.00
35635;DHT22;21757;43.610;1.440;2023-06-14T03:07:04;19.20;82.20
35635;DHT22;21757;43.610;1.440;2023-06-14T03:09:37;19.00;81.60
35635;DHT22;21757;43.610;1.440;2023-06-14T03:12:04;18.90;81.70
35635;DHT22;21757;43.610;1.440;2023-06-14T03:14:32;18.80;81.80
35635;DHT22;21757;43.610;1.440;2023-06-14T03:16:58;18.70;81.60
35635;DHT22;21757;43.610;1.440;2023-06-14T03:19:24;18.70;81.10
35635;DHT22;21757;43.610;1.440;2023-06-14T03:21:51;18.60;81.40
35635;DHT22;21757;43.610;1.440;2023-06-14T03:24:17;18.70;81.40
35635;DHT22;21757;43.610;1.440;2023-06-14T03:26:43;18.70;81.80
35635;DHT22;21757;43.610;1.440;2023-06-14T03:29:08;18.60;81.20
35635;DHT22;21757;43.610;1.440;2023-06-14T03:31:34;18.60;81.50
35635;DHT22;21757;43.610;1.440;2023-06-14T03:34:01;18.60;81.90
35635;DHT22;21757;43.610;1.440;2023-06-14T03:36:27;18.60;81.90
35635;DHT22;21757;43.610;1.440;2023-06-14T03:38:53;18.60;82.00
35635;DHT22;21757;43.610;1.440;2023-06-14T03:41:20;18.60;82.00
35635;DHT22;21757;43.610;1.440;2023-06-14T03:43:46;18.60;81.90
35635;DHT22;21757;43.610;1.440;2023-06-14T03:46:12;18.60;82.20
35635;DHT22;21757;43.610;1.440;2023-06-14T03:48:37;18.60;82.40
35635;DHT22;21757;43.610;1.440;2023-06-14T03:51:04;18.50;82.00
35635;DHT22;21757;43.610;1.440;2023-06-14T03:53:30;18.50;82.20
35635;DHT22;21757;43.610;1.440;2023-06-14T03:55:56;18.50;82.30
35635;DHT22;21757;43.610;1.440;2023-06-14T03:58:22;18.50;83.00
35635;DHT22;21757;43.610;1.440;2023-06-14T04:00:48;18.60;82.60
35635;DHT22;21757;43.610;1.440;2023-06-14T04:03:14;18.60;83.20
35635;DHT22;21757;43.610;1.440;2023-06-14T04:05:41;18.70;83.00
35635;DHT22;21757;43.610;1.440;2023-06-14T04:08:09;18.60;83.10
35635;DHT22;21757;43.610;1.440;2023-06-14T04:10:35;18.70;83.60
35635;DHT22;21757;43.610;1.440;2023-06-14T04:13:01;18.70;82.90
35635;DHT22;21757;43.610;1.440;2023-06-14T04:15:27;18.70;83.60
35635;DHT22;21757;43.610;1.440;2023-06-14T04:17:56;18.70;83.60
35635;DHT22;21757;43.610;1.440;2023-06-14T04:20:23;18.60;83.20
35635;DHT22;21757;43.610;1.440;2023-06-14T04:22:50;18.70;83.30
35635;DHT22;21757;43.610;1.440;2023-06-14T04:25:16;18.80;83.70
35635;DHT22;21757;43.610;1.440;2023-06-14T04:27:42;18.80;83.70
35635;DHT22;21757;43.610;1.440;2023-06-14T04:30:09;18.80;83.60
35635;DHT22;21757;43.610;1.440;2023-06-14T04:32:35;18.80;83.70
35635;DHT22;21757;43.610;1.440;2023-06-14T04:35:06;18.80;84.10
35635;DHT22;21757;43.610;1.440;2023-06-14T04:37:32;18.80;84.80
35635;DHT22;21757;43.610;1.440;2023-06-14T04:39:58;18.80;83.80
35635;DHT22;21757;43.610;1.440;2023-06-14T04:42:24;18.80;84.30
35635;DHT22;21757;43.610;1.440;2023-06-14T04:44:55;18.80;83.90
35635;DHT22;21757;43.610;1.440;2023-06-14T04:47:21;18.80;84.30
35635;DHT22;21757;43.610;1.440;2023-06-14T04:49:47;18.80;84.80
35635;DHT22;21757;43.610;1.440;2023-06-14T04:52:13;18.80;84.20
35635;DHT22;21757;43.610;1.440;2023-06-14T04:54:39;18.70;84.10
35635;DHT22;21757;43.610;1.440;2023-06-14T04:57:08;18.70;84.40
35635;DHT22;21757;43.610;1.440;2023-06-14T04:59:40;18.80;84.50
35635;DHT22;21757;43.610;1.440;2023-06-14T05:02:06;18.80;84.60
35635;DHT22;21757;43.610;1.440;2023-06-14T05:04:32;18.80;84.80
35635;DHT22;21757;43.610;1.440;2023-06-14T05:06:58;18.80;84.40
35635;DHT22;21757;43.610;1.440;2023-06-14T05:09:24;18.80;84.80
35635;DHT22;21757;43.610;1.440;2023-06-14T05:11:50;18.80;85.40
35635;DHT22;21757;43.610;1.440;2023-06-14T05:14:16;18.80;85.00
35635;DHT22;21757;43.610;1.440;2023-06-14T05:16:42;18.80;84.90
35635;DHT22;21757;43.610;1.440;2023-06-14T05:19:08;18.80;85.70
35635;DHT22;21757;43.610;1.440;2023-06-14T05:21:34;18.80;85.00
35635;DHT22;21757;43.610;1.440;2023-06-14T05:24:00;18.80;85.50
35635;DHT22;21757;43.610;1.440;2023-06-14T05:26:27;18.90;85.60
35635;DHT22;21757;43.610;1.440;2023-06-14T05:28:56;18.90;85.60
35635;DHT22;21757;43.610;1.440;2023-06-14T05:31:22;18.90;85.70
35635;DHT22;21757;43.610;1.440;2023-06-14T05:33:49;19.00;85.90
35635;DHT22;21757;43.610;1.440;2023-06-14T05:36:15;19.00;86.20
35635;DHT22;21757;43.610;1.440;2023-06-14T05:38:41;19.00;86.50
35635;DHT22;21757;43.610;1.440;2023-06-14T05:41:06;19.10;85.90
35635;DHT22;21757;43.610;1.440;2023-06-14T05:43:32;19.20;87.10
35635;DHT22;21757;43.610;1.440;2023-06-14T05:45:58;19.20;86.90
35635;DHT22;21757;43.610;1.440;2023-06-14T05:48:24;19.30;87.20
35635;DHT22;21757;43.610;1.440;2023-06-14T05:50:49;19.30;87.60
35635;DHT22;21757;43.610;1.440;2023-06-14T05:53:15;19.30;87.40
35635;DHT22;21757;43.610;1.440;2023-06-14T05:55:42;19.30;87.50
35635;DHT22;21757;43.610;1.440;2023-06-14T05:58:08;19.30;87.30
35635;DHT22;21757;43.610;1.440;2023-06-14T06:00:33;19.40;87.70
35635;DHT22;21757;43.610;1.440;2023-06-14T06:02:59;19.40;87.90
35635;DHT22;21757;43.610;1.440;2023-06-14T06:05:26;19.40;87.70
35635;DHT22;21757;43.610;1.440;2023-06-14T06:07:52;19.40;88.00
35635;DHT22;21757;43.610;1.440;2023-06-14T06:10:17;19.40;94.10
35635;DHT22;21757;43.610;1.440;2023-06-14T06:12:43;19.40;87.80
35635;DHT22;21757;43.610;1.440;2023-06-14T06:15:09;19.40;87.60
35635;DHT22;21757;43.610;1.440;2023-06-14T06:17:38;19.40;88.00
35635;DHT22;21757;43.610;1.440;2023-06-14T06:20:05;19.40;87.90
35635;DHT22;21757;43.610;1.440;2023-06-14T06:22:33;19.40;88.10
35635;DHT22;21757;43.610;1.440;2023-06-14T06:24:59;19.40;88.40
35635;DHT22;21757;43.610;1.440;2023-06-14T06:27:25;19.50;88.50
35635;DHT22;21757;43.610;1.440;2023-06-14T06:29:51;19.50;88.30
35635;DHT22;21757;43.610;1.440;2023-06-14T06:32:17;19.60;88.80
35635;DHT22;21757;43.610;1.440;2023-06-14T06:34:43;19.70;89.30
35635;DHT22;21757;43.610;1.440;2023-06-14T06:37:09;19.80;89.20
35635;DHT22;21757;43.610;1.440;2023-06-14T06:39:34;19.90;89.00
35635;DHT22;21757;43.610;1.440;2023-06-14T06:42:00;19.90;89.20
35635;DHT22;21757;43.610;1.440;2023-06-14T06:44:26;19.90;89.00
35635;DHT22;21757;43.610;1.440;2023-06-14T06:46:52;19.70;88.20
35635;DHT22;21757;43.610;1.440;2023-06-14T06:49:17;19.70;88.50
35635;DHT22;21757;43.610;1.440;2023-06-14T06:51:43;19.80;89.60
35635;DHT22;21757;43.610;1.440;2023-06-14T06:54:10;19.80;88.80
35635;DHT22;21757;43.610;1.440;2023-06-14T06:56:36;19.90;89.10
35635;DHT22;21757;43.610;1.440;2023-06-14T06:59:02;19.90;88.80
35635;DHT22;21757;43.610;1.440;2023-06-14T07:01:27;19.80;89.50
35635;DHT22;21757;43.610;1.440;2023-06-14T07:03:55;19.90;89.10
35635;DHT22;21757;43.610;1.440;2023-06-14T07:06:21;20.00;88.90
35635;DHT22;21757;43.610;1.440;2023-06-14T07:08:46;20.00;89.20
35635;DHT22;21757;43.610;1.440;2023-06-14T07:11:16;20.00;89.10
35635;DHT22;21757;43.610;1.440;2023-06-14T07:13:41;20.10;88.90
35635;DHT22;21757;43.610;1.440;2023-06-14T07:16:07;20.00;89.20
35635;DHT22;21757;43.610;1.440;2023-06-14T07:18:33;19.90;88.20
35635;DHT22;21757;43.610;1.440;2023-06-14T07:20:58;19.90;88.00
35635;DHT22;21757;43.610;1.440;2023-06-14T07:23:24;20.00;88.60
35635;DHT22;21757;43.610;1.440;2023-06-14T07:25:50;19.90;88.30
35635;DHT22;21757;43.610;1.440;2023-06-14T07:28:17;20.00;88.60
35635;DHT22;21757;43.610;1.440;2023-06-14T07:30:43;20.00;88.90
35635;DHT22;21757;43.610;1.440;2023-06-14T07:33:09;20.10;88.70
35635;DHT22;21757;43.610;1.440;2023-06-14T07:35:35;20.10;89.60
35635;DHT22;21757;43.610;1.440;2023-06-14T07:38:01;20.10;89.20
35635;DHT22;21757;43.610;1.440;2023-06-14T07:40:27;20.10;88.80
35635;DHT22;21757;43.610;1.440;2023-06-14T07:42:53;20.10;88.80
35635;DHT22;21757;43.610;1.440;2023-06-14T07:45:20;20.10;89.40
35635;DHT22;21757;43.610;1.440;2023-06-14T07:47:46;20.10;89.30
35635;DHT22;21757;43.610;1.440;2023-06-14T07:50:12;20.20;89.30
35635;DHT22;21757;43.610;1.440;2023-06-14T07:52:39;20.20;89.00
35635;DHT22;21757;43.610;1.440;2023-06-14T07:55:05;20.30;89.20
35635;DHT22;21757;43.610;1.440;2023-06-14T07:57:31;20.30;88.80
35635;DHT22;21757;43.610;1.440;2023-06-14T07:59:56;20.40;89.30
35635;DHT22;21757;43.610;1.440;2023-06-14T08:02:22;20.40;88.90
35635;DHT22;21757;43.610;1.440;2023-06-14T08:04:48;20.40;88.20
35635;DHT22;21757;43.610;1.440;2023-06-14T08:07:14;20.50;88.60
35635;DHT22;21757;43.610;1.440;2023-06-14T08:09:40;20.40;88.10
35635;DHT22;21757;43.610;1.440;2023-06-14T08:12:06;20.60;87.70
35635;DHT22;21757;43.610;1.440;2023-06-14T08:14:33;20.60;87.10
35635;DHT22;21757;43.610;1.440;2023-06-14T08:16:59;20.80;87.00
35635;DHT22;21757;43.610;1.440;2023-06-14T08:19:25;20.90;85.60
35635;DHT22;21757;43.610;1.440;2023-06-14T08:21:51;21.00;84.60
35635;DHT22;21757;43.610;1.440;2023-06-14T08:24:16;21.10;84.40
35635;DHT22;21757;43.610;1.440;2023-06-14T08:26:44;21.30;84.50
35635;DHT22;21757;43.610;1.440;2023-06-14T08:29:09;21.40;81.60
35635;DHT22;21757;43.610;1.440;2023-06-14T08:31:35;21.40;81.30
35635;DHT22;21757;43.610;1.440;2023-06-14T08:34:01;21.50;80.90
35635;DHT22;21757;43.610;1.440;2023-06-14T08:36:27;21.50;81.30
35635;DHT22;21757;43.610;1.440;2023-06-14T08:38:52;21.50;80.60
35635;DHT22;21757;43.610;1.440;2023-06-14T08:41:21;21.50;80.20
35635;DHT22;21757;43.610;1.440;2023-06-14T08:43:50;21.60;80.10
35635;DHT22;21757;43.610;1.440;2023-06-14T08:46:18;21.80;78.90
35635;DHT22;21757;43.610;1.440;2023-06-14T08:48:48;21.80;77.80
35635;DHT22;21757;43.610;1.440;2023-06-14T08:51:19;21.80;77.00
35635;DHT22;21757;43.610;1.440;2023-06-14T08:53:45;22.00;77.00
35635;DHT22;21757;43.610;1.440;2023-06-14T08:56:11;22.20;74.20
35635;DHT22;21757;43.610;1.440;2023-06-14T08:58:49;22.30;75.00
35635;DHT22;21757;43.610;1.440;2023-06-14T09:01:14;22.50;73.80
35635;DHT22;21757;43.610;1.440;2023-06-14T09:03:43;22.50;72.40
35635;DHT22;21757;43.610;1.440;2023-06-14T09:06:10;22.50;72.00
35635;DHT22;21757;43.610;1.440;2023-06-14T09:08:46;22.40;71.20
35635;DHT22;21757;43.610;1.440;2023-06-14T09:11:14;22.30;70.40
35635;DHT22;21757;43.610;1.440;2023-06-14T09:13:40;22.30;71.10
35635;DHT22;21757;43.610;1.440;2023-06-14T09:16:07;22.40;71.20
35635;DHT22;21757;43.610;1.440;2023-06-14T09:18:41;22.50;69.80
35635;DHT22;21757;43.610;1.440;2023-06-14T09:21:10;22.70;69.20
35635;DHT22;21757;43.610;1.440;2023-06-14T09:23:43;23.00;68.10
35635;DHT22;21757;43.610;1.440;2023-06-14T09:26:10;23.10;66.00
35635;DHT22;21757;43.610;1.440;2023-06-14T09:28:40;23.20;66.10
35635;DHT22;21757;43.610;1.440;2023-06-14T09:31:07;23.40;65.10
35635;DHT22;21757;43.610;1.440;2023-06-14T09:33:34;23.10;74.60
35635;DHT22;21757;43.610;1.440;2023-06-14T09:36:00;23.10;63.90
35635;DHT22;21757;43.610;1.440;2023-06-14T09:38:25;23.20;63.60
35635;DHT22;21757;43.610;1.440;2023-06-14T09:40:52;23.30;63.40
35635;DHT22;21757;43.610;1.440;2023-06-14T09:43:18;23.10;62.40
35635;DHT22;21757;43.610;1.440;2023-06-14T09:45:45;22.90;62.90
35635;DHT22;21757;43.610;1.440;2023-06-14T09:48:14;22.80;63.20
35635;DHT22;21757;43.610;1.440;2023-06-14T09:50:45;23.00;62.60
35635;DHT22;21757;43.610;1.440;2023-06-14T09:53:12;23.30;62.70
35635;DHT22;21757;43.610;1.440;2023-06-14T09:55:41;23.50;62.70
35635;DHT22;21757;43.610;1.440;2023-06-14T09:58:08;23.80;61.90
35635;DHT22;21757;43.610;1.440;2023-06-14T10:00:36;23.70;60.20
35635;DHT22;21757;43.610;1.440;2023-06-14T10:03:13;23.90;59.70
35635;DHT22;21757;43.610;1.440;2023-06-14T10:05:43;23.80;59.60
35635;DHT22;21757;43.610;1.440;2023-06-14T10:08:15;24.00;59.10
35635;DHT22;21757;43.610;1.440;2023-06-14T10:10:42;24.00;58.30
35635;DHT22;21757;43.610;1.440;2023-06-14T10:13:09;24.30;59.00
35635;DHT22;21757;43.610;1.440;2023-06-14T10:18:57;24.40;56.70
35635;DHT22;21757;43.610;1.440;2023-06-14T10:21:37;23.90;55.30
35635;DHT22;21757;43.610;1.440;2023-06-14T10:24:08;24.00;54.60
35635;DHT22;21757;43.610;1.440;2023-06-14T10:26:51;24.10;55.10
35635;DHT22;21757;43.610;1.440;2023-06-14T10:29:17;24.30;53.90
35635;DHT22;21757;43.610;1.440;2023-06-14T10:31:47;24.30;53.90
35635;DHT22;21757;43.610;1.440;2023-06-14T10:34:26;24.40;53.80
35635;DHT22;21757;43.610;1.440;2023-06-14T10:37:02;24.60;53.50
35635;DHT22;21757;43.610;1.440;2023-06-14T10:39:28;24.30;53.20
35635;DHT22;21757;43.610;1.440;2023-06-14T10:41:56;24.30;53.20
35635;DHT22;21757;43.610;1.440;2023-06-14T10:46:54;24.60;53.80
35635;DHT22;21757;43.610;1.440;2023-06-14T10:49:20;24.90;52.80
35635;DHT22;21757;43.610;1.440;2023-06-14T10:51:51;25.10;51.40
35635;DHT22;21757;43.610;1.440;2023-06-14T10:54:21;24.90;51.10
35635;DHT22;21757;43.610;1.440;2023-06-14T10:56:48;24.90;50.80
35635;DHT22;21757;43.610;1.440;2023-06-14T10:59:16;25.10;50.60
35635;DHT22;21757;43.610;1.440;2023-06-14T11:04:48;25.20;49.00
35635;DHT22;21757;43.610;1.440;2023-06-14T11:07:39;25.00;48.60
35635;DHT22;21757;43.610;1.440;2023-06-14T11:10:39;25.00;48.80
35635;DHT22;21757;43.610;1.440;2023-06-14T11:13:09;25.20;48.70
35635;DHT22;21757;43.610;1.440;2023-06-14T11:15:36;25.20;47.70
35635;DHT22;21757;43.610;1.440;2023-06-14T11:18:06;25.20;47.60
35635;DHT22;21757;43.610;1.440;2023-06-14T11:20:34;24.90;47.00
35635;DHT22;21757;43.610;1.440;2023-06-14T11:23:01;25.00;46.90
35635;DHT22;21757;43.610;1.440;2023-06-14T11:25:28;24.90;46.90
35635;DHT22;21757;43.610;1.440;2023-06-14T11:27:53;25.30;46.70
35635;DHT22;21757;43.610;1.440;2023-06-14T11:30:20;25.60;46.50
35635;DHT22;21757;43.610;1.440;2023-06-14T11:32:53;25.70;46.00
35635;DHT22;21757;43.610;1.440;2023-06-14T11:35:20;25.40;45.40
35635;DHT22;21757;43.610;1.440;2023-06-14T11:37:47;25.60;45.50
35635;DHT22;21757;43.610;1.440;2023-06-14T11:40:14;25.90;44.90
35635;DHT22;21757;43.610;1.440;2023-06-14T11:42:41;26.00;43.90
35635;DHT22;21757;43.610;1.440;2023-06-14T11:45:11;25.90;42.70
35635;DHT22;21757;43.610;1.440;2023-06-14T11:47:38;25.80;42.30
35635;DHT22;21757;43.610;1.440;2023-06-14T11:50:07;25.80;42.30
35635;DHT22;21757;43.610;1.440;2023-06-14T11:52:34;25.70;42.20
35635;DHT22;21757;43.610;1.440;2023-06-14T11:55:01;25.80;41.90
35635;DHT22;21757;43.610;1.440;2023-06-14T11:57:30;26.10;42.00
35635;DHT22;21757;43.610;1.440;2023-06-14T11:59:55;26.00;41.10
35635;DHT22;21757;43.610;1.440;2023-06-14T12:02:22;25.70;40.60
35635;DHT22;21757;43.610;1.440;2023-06-14T12:04:47;25.50;40.50
35635;DHT22;21757;43.610;1.440;2023-06-14T12:07:17;25.80;40.60
35635;DHT22;21757;43.610;1.440;2023-06-14T12:12:25;26.20;40.00
35635;DHT22;21757;43.610;1.440;2023-06-14T12:14:52;26.20;38.90
35635;DHT22;21757;43.610;1.440;2023-06-14T12:17:19;26.00;38.40
35635;DHT22;21757;43.610;1.440;2023-06-14T12:19:45;26.10;40.70
35635;DHT22;21757;43.610;1.440;2023-06-14T12:22:13;26.10;36.90
35635;DHT22;21757;43.610;1.440;2023-06-14T12:24:42;26.00;36.80
35635;DHT22;21757;43.610;1.440;2023-06-14T12:27:08;25.90;36.20
35635;DHT22;21757;43.610;1.440;2023-06-14T12:29:34;26.00;36.80
35635;DHT22;21757;43.610;1.440;2023-06-14T12:32:00;26.00;36.60
35635;DHT22;21757;43.610;1.440;2023-06-14T12:34:29;25.90;36.60
35635;DHT22;21757;43.610;1.440;2023-06-14T12:36:56;26.00;36.20
35635;DHT22;21757;43.610;1.440;2023-06-14T12:39:22;26.20;35.60
35635;DHT22;21757;43.610;1.440;2023-06-14T12:41:48;26.20;34.80
35635;DHT22;21757;43.610;1.440;2023-06-14T12:44:14;26.30;35.10
35635;DHT22;21757;43.610;1.440;2023-06-14T12:46:41;26.40;34.50
35635;DHT22;21757;43.610;1.440;2023-06-14T12:49:11;26.40;33.60
35635;DHT22;21757;43.610;1.440;2023-06-14T12:51:38;26.70;33.60
35635;DHT22;21757;43.610;1.440;2023-06-14T12:54:04;26.70;32.20
35635;DHT22;21757;43.610;1.440;2023-06-14T12:56:30;26.40;32.20
35635;DHT22;21757;43.610;1.440;2023-06-14T12:58:56;26.40;31.00
35635;DHT22;21757;43.610;1.440;2023-06-14T13:01:21;26.50;31.00
35635;DHT22;21757;43.610;1.440;2023-06-14T13:03:47;26.70;30.70
35635;DHT22;21757;43.610;1.440;2023-06-14T13:06:15;26.80;30.40
35635;DHT22;21757;43.610;1.440;2023-06-14T13:08:41;26.80;30.20
35635;DHT22;21757;43.610;1.440;2023-06-14T13:11:07;26.50;30.20
35635;DHT22;21757;43.610;1.440;2023-06-14T13:13:32;26.60;29.90
35635;DHT22;21757;43.610;1.440;2023-06-14T13:15:58;26.70;29.50
35635;DHT22;21757;43.610;1.440;2023-06-14T13:18:24;26.90;29.10
35635;DHT22;21757;43.610;1.440;2023-06-14T13:20:50;26.90;27.60
35635;DHT22;21757;43.610;1.440;2023-06-14T13:23:16;27.10;28.50
35635;DHT22;21757;43.610;1.440;2023-06-14T13:25:42;27.20;28.30
35635;DHT22;21757;43.610;1.440;2023-06-14T13:28:08;26.90;27.30
35635;DHT22;21757;43.610;1.440;2023-06-14T13:30:33;27.00;27.80
35635;DHT22;21757;43.610;1.440;2023-06-14T13:33:00;27.00;27.80
35635;DHT22;21757;43.610;1.440;2023-06-14T13:35:26;27.00;27.90
35635;DHT22;21757;43.610;1.440;2023-06-14T13:37:52;27.20;27.10
35635;DHT22;21757;43.610;1.440;2023-06-14T13:40:18;27.20;27.30
35635;DHT22;21757;43.610;1.440;2023-06-14T13:42:44;27.30;26.80
35635;DHT22;21757;43.610;1.440;2023-06-14T13:45:11;27.30;26.80
35635;DHT22;21757;43.610;1.440;2023-06-14T13:47:37;27.40;26.90
35635;DHT22;21757;43.610;1.440;2023-06-14T13:50:03;27.60;26.50
35635;DHT22;21757;43.610;1.440;2023-06-14T13:52:29;27.50;26.60
35635;DHT22;21757;43.610;1.440;2023-06-14T13:54:55;27.40;25.60
35635;DHT22;21757;43.610;1.440;2023-06-14T13:57:20;27.20;25.50
35635;DHT22;21757;43.610;1.440;2023-06-14T13:59:46;27.20;26.10
35635;DHT22;21757;43.610;1.440;2023-06-14T14:02:13;26.90;25.80
35635;DHT22;21757;43.610;1.440;2023-06-14T14:04:39;27.00;26.00
35635;DHT22;21757;43.610;1.440;2023-06-14T14:07:05;26.90;25.90
35635;DHT22;21757;43.610;1.440;2023-06-14T14:09:32;26.90;25.90
35635;DHT22;21757;43.610;1.440;2023-06-14T14:11:58;26.70;26.30
35635;DHT22;21757;43.610;1.440;2023-06-14T14:14:24;26.60;25.80
35635;DHT22;21757;43.610;1.440;2023-06-14T14:16:50;26.70;25.80
35635;DHT22;21757;43.610;1.440;2023-06-14T14:19:22;26.80;26.10
35635;DHT22;21757;43.610;1.440;2023-06-14T14:21:47;26.70;26.10
35635;DHT22;21757;43.610;1.440;2023-06-14T14:24:13;26.90;26.10
35635;DHT22;21757;43.610;1.440;2023-06-14T14:26:39;27.20;26.00
35635;DHT22;21757;43.610;1.440;2023-06-14T14:29:05;27.20;25.90
35635;DHT22;21757;43.610;1.440;2023-06-14T14:31:31;27.10;25.50
35635;DHT22;21757;43.610;1.440;2023-06-14T14:33:57;27.00;25.50
35635;DHT22;21757;43.610;1.440;2023-06-14T14:36:23;26.70;25.60
35635;DHT22;21757;43.610;1.440;2023-06-14T14:38:49;26.60;25.50
35635;DHT22;21757;43.610;1.440;2023-06-14T14:41:17;26.70;25.80
35635;DHT22;21757;43.610;1.440;2023-06-14T14:43:42;26.80;25.60
35635;DHT22;21757;43.610;1.440;2023-06-14T14:46:08;26.60;25.90
35635;DHT22;21757;43.610;1.440;2023-06-14T14:48:34;26.40;25.60
35635;DHT22;21757;43.610;1.440;2023-06-14T14:50:59;26.30;25.60
35635;DHT22;21757;43.610;1.440;2023-06-14T14:53:25;26.50;25.60
35635;DHT22;21757;43.610;1.440;2023-06-14T14:55:51;26.90;25.80
35635;DHT22;21757;43.610;1.440;2023-06-14T14:58:16;27.10;25.40
35635;DHT22;21757;43.610;1.440;2023-06-14T15:00:44;27.40;24.80
35635;DHT22;21757;43.610;1.440;2023-06-14T15:03:10;27.10;24.10
35635;DHT22;21757;43.610;1.440;2023-06-14T15:05:36;26.80;25.80
35635;DHT22;21757;43.610;1.440;2023-06-14T15:08:03;26.80;25.60
35635;DHT22;21757;43.610;1.440;2023-06-14T15:10:29;26.50;25.90
35635;DHT22;21757;43.610;1.440;2023-06-14T15:12:55;26.40;25.60
35635;DHT22;21757;43.610;1.440;2023-06-14T15:15:22;26.30;25.80
35635;DHT22;21757;43.610;1.440;2023-06-14T15:17:47;26.20;25.60
35635;DHT22;21757;43.610;1.440;2023-06-14T15:20:13;26.20;26.00
35635;DHT22;21757;43.610;1.440;2023-06-14T15:22:40;26.20;25.90
35635;DHT22;21757;43.610;1.440;2023-06-14T15:25:06;26.30;26.00
35635;DHT22;21757;43.610;1.440;2023-06-14T15:27:32;26.60;26.10
35635;DHT22;21757;43.610;1.440;2023-06-14T15:29:57;26.70;25.90
35635;DHT22;21757;43.610;1.440;2023-06-14T15:32:23;26.70;26.00
35635;DHT22;21757;43.610;1.440;2023-06-14T15:34:49;26.50;25.60
35635;DHT22;21757;43.610;1.440;2023-06-14T15:37:14;26.50;25.60
35635;DHT22;21757;43.610;1.440;2023-06-14T15:39:40;26.50;25.50
35635;DHT22;21757;43.610;1.440;2023-06-14T15:42:06;26.40;25.10